Time;durP1;ratioP1;P1;durP2;ratioP2;P2;SDS_P1;SDS_P2;PMS_P1;PMS_P2;Temp;Humidity;BMP_temperature;BMP_pressure;BME280_temperature;BME280_humidity;BME280_pressure;Samples;Min_cycle;Max_cycle;Signal;HPM_P1;HPM_P2
2024/02/25 00:02:42;;;;;;;7.07;4.13;;;4.60;99.90;;;;;;7394381;19;20006;-73
2024/02/25 00:05:09;;;;;;;8.45;4.55;;;4.70;99.90;;;;;;7372254;19;20073;-73
2024/02/25 00:07:35;;;;;;;8.75;4.07;;;4.60;99.90;;;;;;7368858;19;20337;-72
2024/02/25 00:13:17;;;;;;;8.65;4.57;;;4.70;99.90;;;;;;7396472;19;20007;-73
2024/02/25 00:16:19;;;;;;;8.15;5.28;;;4.70;99.90;;;;;;7398186;19;20043;-73
2024/02/25 00:18:46;;;;;;;7.93;4.40;;;4.70;99.90;;;;;;7396922;19;20019;-74
2024/02/25 00:21:14;;;;;;;7.88;4.95;;;4.60;99.90;;;;;;7380115;19;21192;-72
2024/02/25 00:23:40;;;;;;;9.65;5.43;;;4.60;99.90;;;;;;7362248;19;20082;-72
2024/02/25 00:26:09;;;;;;;6.40;3.80;;;4.60;99.90;;;;;;7370426;19;20031;-72
2024/02/25 00:28:36;;;;;;;8.07;4.90;;;4.60;99.90;;;;;;7370354;19;20032;-72
2024/02/25 00:31:03;;;;;;;7.63;4.78;;;4.60;99.90;;;;;;7370599;19;20634;-73
2024/02/25 00:33:30;;;;;;;8.23;4.63;;;4.70;99.90;;;;;;7368932;19;20027;-72
2024/02/25 00:36:02;;;;;;;8.63;4.60;;;4.70;99.90;;;;;;7392267;19;20124;-74
2024/02/25 00:41:43;;;;;;;8.45;4.47;;;4.70;99.90;;;;;;7377371;19;21042;-72
2024/02/25 00:44:11;;;;;;;7.63;4.65;;;4.80;99.90;;;;;;7369004;19;20022;-73
2024/02/25 00:46:50;;;;;;;6.93;4.30;;;4.80;99.90;;;;;;7384045;19;20006;-73
2024/02/25 00:49:29;;;;;;;6.95;4.75;;;4.80;99.90;;;;;;7406084;19;20010;-73
2024/02/25 00:51:56;;;;;;;7.15;4.82;;;4.80;99.90;;;;;;7377034;19;20507;-72
2024/02/25 00:54:23;;;;;;;6.60;4.13;;;4.70;99.90;;;;;;7373816;19;20018;-72
2024/02/25 01:00:32;;;;;;;7.95;4.40;;;4.80;99.90;;;;;;7383516;19;20021;-73
2024/02/25 01:03:07;;;;;;;6.53;3.97;;;4.80;99.90;;;;;;7401646;19;20013;-73
2024/02/25 01:05:40;;;;;;;5.82;4.00;;;4.80;99.90;;;;;;7400718;19;20014;-73
2024/02/25 01:08:13;;;;;;;8.80;4.70;;;4.90;99.90;;;;;;7402709;19;20010;-73
2024/02/25 01:10:40;;;;;;;7.93;3.90;;;4.80;99.90;;;;;;7397848;19;20475;-72
2024/02/25 01:13:07;;;;;;;10.20;4.30;;;4.80;99.90;;;;;;7374934;19;20019;-72
2024/02/25 01:15:34;;;;;;;7.63;4.65;;;4.90;99.90;;;;;;7388439;19;20017;-72
2024/02/25 01:18:00;;;;;;;6.72;3.80;;;4.90;99.90;;;;;;7373458;19;20026;-72
2024/02/25 01:20:27;;;;;;;8.63;4.13;;;4.80;99.90;;;;;;7396363;19;20021;-74
2024/02/25 01:23:20;;;;;;;6.10;4.20;;;4.80;99.90;;;;;;7402816;19;20015;-74
2024/02/25 01:26:19;;;;;;;8.57;4.03;;;4.90;99.90;;;;;;7403126;19;20037;-76
2024/02/25 01:28:56;;;;;;;7.43;3.60;;;4.90;99.90;;;;;;7402846;19;20367;-74
2024/02/25 01:31:23;;;;;;;5.32;3.70;;;4.90;99.90;;;;;;7390611;19;20067;-73
2024/02/25 01:33:51;;;;;;;7.45;3.20;;;4.90;99.90;;;;;;7376400;19;20015;-73
2024/02/25 01:36:18;;;;;;;6.15;3.75;;;5.00;99.90;;;;;;7391417;19;20017;-72
2024/02/25 01:38:45;;;;;;;5.97;3.53;;;5.00;99.90;;;;;;7369652;19;20018;-72
2024/02/25 01:41:13;;;;;;;7.20;3.30;;;5.00;99.90;;;;;;7370065;19;20022;-73
2024/02/25 01:43:40;;;;;;;7.72;3.67;;;5.00;99.90;;;;;;7388258;19;20018;-72
2024/02/25 01:46:08;;;;;;;6.57;3.00;;;5.00;99.90;;;;;;7370762;19;20042;-72
2024/02/25 01:48:35;;;;;;;8.90;3.30;;;5.00;99.90;;;;;;7375209;19;20827;-72
2024/02/25 01:51:03;;;;;;;5.95;3.40;;;5.00;99.90;;;;;;7394015;19;20010;-72
2024/02/25 01:53:30;;;;;;;7.68;3.10;;;5.10;99.90;;;;;;7364291;19;20584;-72
2024/02/25 01:55:57;;;;;;;5.82;3.47;;;5.10;99.90;;;;;;7381301;19;20033;-75
2024/02/25 01:58:24;;;;;;;5.20;3.40;;;5.10;99.90;;;;;;7371214;19;20044;-72
2024/02/25 02:00:51;;;;;;;5.47;3.25;;;5.00;99.90;;;;;;7381563;19;20885;-72
2024/02/25 02:03:18;;;;;;;6.95;3.50;;;5.00;99.90;;;;;;7369742;19;20010;-72
2024/02/25 02:05:44;;;;;;;8.50;3.55;;;5.00;99.90;;;;;;7369566;19;20022;-72
2024/02/25 02:08:11;;;;;;;5.68;3.47;;;5.00;99.90;;;;;;7367272;19;20027;-74
2024/02/25 02:10:37;;;;;;;5.97;3.53;;;5.00;99.90;;;;;;7364652;19;20022;-73
2024/02/25 02:13:05;;;;;;;6.97;3.70;;;5.00;99.90;;;;;;7371176;19;20010;-72
2024/02/25 02:15:39;;;;;;;5.45;3.22;;;5.00;99.90;;;;;;7399958;19;20006;-75
2024/02/25 02:18:13;;;;;;;5.88;3.08;;;5.00;99.90;;;;;;7404268;19;20022;-74
2024/02/25 02:20:45;;;;;;;6.57;2.75;;;5.00;99.90;;;;;;7386436;19;20023;-72
2024/02/25 02:23:11;;;;;;;5.80;3.30;;;5.00;99.90;;;;;;7368957;19;20019;-72
2024/02/25 02:25:43;;;;;;;6.63;3.20;;;5.00;99.90;;;;;;7375847;19;20029;-73
2024/02/25 02:28:43;;;;;;;6.32;3.50;;;5.00;99.90;;;;;;7398829;19;20006;-73
2024/02/25 02:35:06;;;;;;;6.35;3.78;;;5.00;99.90;;;;;;7398820;19;20327;-72
2024/02/25 02:37:33;;;;;;;7.18;3.33;;;4.90;99.90;;;;;;7381817;19;20372;-73
2024/02/25 02:39:59;;;;;;;6.40;3.20;;;4.90;99.90;;;;;;7385750;19;20026;-71
2024/02/25 02:50:06;;;;;;;6.30;3.10;;;4.90;99.90;;;;;;7402547;19;19994;-74
2024/02/25 02:55:44;;;;;;;7.10;3.20;;;4.90;99.90;;;;;;7371629;19;20014;-71
2024/02/25 02:58:11;;;;;;;6.05;2.90;;;4.80;99.90;;;;;;7366697;19;20106;-72
2024/02/25 03:00:38;;;;;;;8.15;3.55;;;4.80;99.90;;;;;;7366111;19;20680;-72
2024/02/25 03:03:06;;;;;;;6.65;3.40;;;4.80;99.90;;;;;;7366731;19;20015;-73
2024/02/25 03:05:59;;;;;;;4.82;2.85;;;4.80;99.90;;;;;;7399181;19;20014;-74
2024/02/25 03:08:40;;;;;;;7.50;3.67;;;4.70;99.90;;;;;;7396911;19;20126;-73
2024/02/25 03:11:44;;;;;;;7.97;3.95;;;4.70;99.90;;;;;;7395579;19;20018;-73
2024/02/25 03:14:21;;;;;;;5.63;3.60;;;4.70;99.90;;;;;;7400104;19;20022;-74
2024/02/25 03:20:44;;;;;;;4.03;3.20;;;4.70;99.90;;;;;;7384010;19;20836;-72
2024/02/25 03:23:13;;;;;;;5.45;3.45;;;4.70;99.90;;;;;;7395293;19;20037;-74
2024/02/25 03:25:54;;;;;;;4.45;2.90;;;4.70;99.90;;;;;;7397242;19;20018;-73
2024/02/25 03:28:39;;;;;;;5.57;3.58;;;4.70;99.90;;;;;;7399448;19;20021;-76
2024/02/25 03:31:36;;;;;;;5.45;3.45;;;4.70;99.90;;;;;;7396932;19;20445;-73
2024/02/25 03:34:04;;;;;;;4.43;2.95;;;4.70;99.90;;;;;;7379330;19;20010;-72
2024/02/25 03:36:31;;;;;;;5.22;3.28;;;4.70;99.90;;;;;;7369196;19;20720;-72
2024/02/25 03:38:58;;;;;;;4.35;3.35;;;4.70;99.90;;;;;;7374359;19;20014;-71
2024/02/25 03:41:26;;;;;;;8.27;3.70;;;4.70;99.90;;;;;;7370321;19;20031;-73
2024/02/25 03:43:53;;;;;;;6.90;3.45;;;4.70;99.90;;;;;;7362476;19;20014;-71
2024/02/25 03:46:21;;;;;;;6.75;3.63;;;4.70;99.90;;;;;;7362647;19;20089;-71
2024/02/25 03:48:48;;;;;;;6.85;3.67;;;4.60;99.90;;;;;;7384612;19;20109;-71
2024/02/25 03:51:48;;;;;;;6.28;3.63;;;4.70;99.90;;;;;;7389087;19;20383;-73
2024/02/25 03:54:30;;;;;;;5.10;3.50;;;4.70;99.90;;;;;;7393631;19;20019;-73
2024/02/25 03:56:58;;;;;;;6.15;3.38;;;4.70;99.90;;;;;;7366419;19;20059;-71
2024/02/25 03:59:37;;;;;;;6.60;3.00;;;4.70;99.90;;;;;;7393354;19;20015;-73
2024/02/25 04:02:19;;;;;;;6.80;3.30;;;4.80;99.90;;;;;;7398098;19;20013;-73
2024/02/25 04:04:49;;;;;;;5.28;3.13;;;4.80;99.90;;;;;;7373861;19;20014;-71
2024/02/25 04:07:16;;;;;;;4.82;3.50;;;4.80;99.90;;;;;;7380545;19;20017;-73
2024/02/25 04:10:14;;;;;;;6.82;3.40;;;4.80;99.90;;;;;;7404814;19;20021;-74
2024/02/25 04:12:41;;;;;;;7.07;3.33;;;4.90;99.90;;;;;;7386963;19;20050;-71
2024/02/25 04:15:09;;;;;;;8.48;3.75;;;4.90;99.90;;;;;;7378334;19;20010;-73
2024/02/25 04:17:36;;;;;;;5.25;3.47;;;4.90;99.90;;;;;;7404706;19;20038;-73
2024/02/25 04:20:15;;;;;;;7.93;3.67;;;4.90;99.90;;;;;;7399395;19;20412;-73
2024/02/25 04:23:14;;;;;;;8.77;4.50;;;4.90;99.90;;;;;;7403148;19;20041;-74
2024/02/25 04:25:55;;;;;;;8.23;4.38;;;4.90;99.90;;;;;;7396418;19;20006;-74
2024/02/25 04:28:39;;;;;;;6.63;4.43;;;4.90;99.90;;;;;;7404289;19;20018;-74
2024/02/25 04:31:06;;;;;;;6.90;4.93;;;4.90;99.90;;;;;;7371199;19;20387;-71
2024/02/25 04:33:34;;;;;;;6.00;4.82;;;4.90;99.90;;;;;;7397597;19;20147;-74
2024/02/25 04:36:03;;;;;;;6.50;4.97;;;4.90;99.90;;;;;;7396542;19;20030;-74
2024/02/25 04:38:35;;;;;;;5.68;5.07;;;4.90;99.90;;;;;;7401554;19;20018;-73
2024/02/25 04:41:03;;;;;;;7.57;6.05;;;4.90;99.90;;;;;;7392097;19;20033;-71
2024/02/25 04:43:30;;;;;;;6.13;5.30;;;4.90;99.90;;;;;;7372163;19;20022;-71
2024/02/25 04:45:57;;;;;;;6.68;5.78;;;4.90;99.90;;;;;;7361927;19;20149;-72
2024/02/25 04:48:24;;;;;;;7.10;5.55;;;4.90;99.90;;;;;;7382617;19;20006;-73
2024/02/25 04:50:55;;;;;;;8.88;6.00;;;4.90;99.90;;;;;;7389489;19;20014;-72
2024/02/25 04:53:25;;;;;;;8.95;6.25;;;4.90;99.90;;;;;;7369760;19;20022;-72
2024/02/25 04:55:52;;;;;;;9.20;6.18;;;4.90;99.90;;;;;;7366167;19;20050;-72
2024/02/25 04:58:22;;;;;;;9.35;6.05;;;4.80;99.90;;;;;;7366050;19;20103;-71
2024/02/25 05:00:50;;;;;;;6.93;6.10;;;4.80;99.90;;;;;;7367707;19;20011;-71
2024/02/25 05:03:22;;;;;;;9.18;6.60;;;4.80;99.90;;;;;;7375774;19;20041;-72
2024/02/25 05:09:24;;;;;;;7.55;6.65;;;4.90;99.90;;;;;;7402410;19;20506;-71
2024/02/25 05:15:55;;;;;;;7.72;6.93;;;4.90;99.90;;;;;;7404143;19;19987;-72
2024/02/25 05:18:35;;;;;;;8.35;6.60;;;4.90;99.90;;;;;;7401161;19;20011;-72
2024/02/25 05:24:58;;;;;;;8.57;6.60;;;4.90;99.90;;;;;;7404460;19;20450;-73
2024/02/25 05:31:15;;;;;;;10.73;7.20;;;4.90;99.90;;;;;;7370013;19;20094;-72
2024/02/25 05:33:49;;;;;;;9.30;7.10;;;5.00;99.90;;;;;;7367362;19;20759;-72
2024/02/25 05:36:16;;;;;;;10.55;6.55;;;5.00;99.90;;;;;;7369581;19;20018;-71
2024/02/25 05:38:44;;;;;;;9.25;6.70;;;4.90;99.90;;;;;;7365307;19;20019;-71
2024/02/25 05:41:12;;;;;;;9.65;6.97;;;5.00;99.90;;;;;;7363506;19;20019;-71
2024/02/25 05:43:41;;;;;;;7.75;6.70;;;5.00;99.90;;;;;;7368694;19;20038;-71
2024/02/25 05:46:07;;;;;;;11.15;7.70;;;5.00;99.90;;;;;;7366160;19;20070;-71
2024/02/25 05:48:36;;;;;;;8.00;6.50;;;5.00;99.90;;;;;;7365822;19;20038;-71
2024/02/25 05:51:04;;;;;;;7.97;6.40;;;5.00;99.90;;;;;;7367304;19;20011;-71
2024/02/25 05:53:33;;;;;;;11.07;7.03;;;5.00;99.90;;;;;;7368587;19;20430;-71
2024/02/25 05:56:06;;;;;;;10.45;7.20;;;5.00;99.90;;;;;;7364631;19;20022;-72
2024/02/25 05:58:49;;;;;;;7.25;5.97;;;5.00;99.90;;;;;;7385189;19;20022;-72
2024/02/25 06:01:23;;;;;;;8.77;6.30;;;5.00;99.90;;;;;;7393120;19;20018;-72
2024/02/25 06:08:04;;;;;;;6.78;6.05;;;5.10;99.90;;;;;;7385124;19;20001;-73
2024/02/25 06:14:26;;;;;;;7.63;5.85;;;5.10;99.90;;;;;;7402100;19;20339;-72
2024/02/25 06:20:47;;;;;;;6.70;5.70;;;5.10;99.90;;;;;;7402934;19;20019;-71
2024/02/25 06:23:29;;;;;;;6.97;5.75;;;5.10;99.90;;;;;;7397237;19;20037;-72
2024/02/25 06:26:05;;;;;;;8.80;5.90;;;5.10;99.90;;;;;;7397868;19;20344;-71
2024/02/25 06:29:03;;;;;;;7.78;6.35;;;5.10;99.90;;;;;;7397129;19;20037;-71
2024/02/25 06:31:57;;;;;;;6.88;5.32;;;5.10;99.90;;;;;;7396183;19;20011;-72
2024/02/25 06:34:37;;;;;;;8.35;5.68;;;5.10;99.90;;;;;;7396303;19;20015;-72
2024/02/25 06:37:32;;;;;;;6.65;5.30;;;5.10;99.90;;;;;;7397490;19;20031;-72
2024/02/25 06:40:18;;;;;;;7.28;5.20;;;5.10;99.90;;;;;;7395857;19;20358;-72
2024/02/25 06:43:03;;;;;;;6.97;5.25;;;5.20;99.90;;;;;;7395532;19;20478;-73
2024/02/25 06:45:32;;;;;;;6.65;5.07;;;5.10;99.90;;;;;;7367792;19;20018;-71
2024/02/25 06:47:58;;;;;;;6.55;5.20;;;5.20;99.90;;;;;;7363200;19;20015;-71
2024/02/25 06:50:30;;;;;;;6.88;4.78;;;5.20;99.90;;;;;;7393290;19;20019;-71
2024/02/25 06:53:12;;;;;;;6.70;4.93;;;5.20;99.90;;;;;;7396682;19;20018;-72
2024/02/25 06:55:58;;;;;;;7.97;4.60;;;5.20;99.90;;;;;;7396783;19;20007;-71
2024/02/25 07:02:16;;;;;;;8.10;4.75;;;5.20;99.90;;;;;;7384356;19;20037;-71
2024/02/25 07:04:45;;;;;;;6.15;4.15;;;5.20;99.90;;;;;;7370451;19;20039;-71
2024/02/25 07:07:12;;;;;;;7.20;4.47;;;5.30;99.90;;;;;;7382141;19;20018;-71
2024/02/25 07:12:51;;;;;;;5.57;4.75;;;5.30;99.90;;;;;;7379595;19;20031;-71
2024/02/25 07:15:26;;;;;;;5.65;3.97;;;5.30;99.90;;;;;;7396410;19;20041;-72
2024/02/25 07:18:15;;;;;;;5.45;4.15;;;5.30;99.90;;;;;;7382299;19;20022;-73
2024/02/25 07:24:42;;;;;;;6.75;3.42;;;5.30;99.90;;;;;;7381554;19;20066;-71
2024/02/25 07:27:09;;;;;;;5.53;4.10;;;5.40;99.90;;;;;;7361417;19;20061;-64
2024/02/25 07:29:36;;;;;;;5.40;3.85;;;5.40;99.90;;;;;;7364851;19;20451;-72
2024/02/25 07:35:56;;;;;;;4.68;3.85;;;5.50;99.90;;;;;;7400872;19;20410;-71
2024/02/25 07:38:25;;;;;;;4.97;3.83;;;5.50;99.90;;;;;;7375761;19;20027;-71
2024/02/25 07:44:00;;;;;;;5.20;3.92;;;5.50;99.90;;;;;;7391888;19;20035;-71
2024/02/25 07:46:29;;;;;;;5.90;4.05;;;5.60;99.90;;;;;;7369935;19;20018;-71
2024/02/25 07:48:58;;;;;;;5.25;4.03;;;5.60;99.90;;;;;;7379241;19;20018;-66
2024/02/25 07:51:25;;;;;;;6.07;4.78;;;5.60;99.90;;;;;;7374229;19;20089;-71
2024/02/25 07:53:57;;;;;;;5.43;4.53;;;5.70;99.90;;;;;;7397241;19;20038;-72
2024/02/25 07:56:45;;;;;;;5.70;4.53;;;5.80;99.90;;;;;;7402628;19;20021;-73
2024/02/25 07:59:13;;;;;;;6.07;4.05;;;5.80;99.90;;;;;;7388318;19;20621;-71
2024/02/25 08:01:41;;;;;;;6.95;4.82;;;5.90;99.90;;;;;;7369840;19;20010;-72
2024/02/25 08:04:08;;;;;;;6.78;4.53;;;5.90;99.90;;;;;;7378515;19;20013;-72
2024/02/25 08:06:36;;;;;;;5.57;4.68;;;6.00;99.90;;;;;;7389424;19;20018;-73
2024/02/25 08:09:35;;;;;;;6.47;4.28;;;6.00;99.90;;;;;;7400622;19;20359;-72
2024/02/25 08:12:06;;;;;;;5.32;4.65;;;6.00;99.90;;;;;;7400804;19;20475;-72
2024/02/25 08:15:05;;;;;;;6.00;5.07;;;6.00;99.90;;;;;;7400896;19;20499;-72
2024/02/25 08:17:32;;;;;;;7.10;4.60;;;6.10;99.90;;;;;;7386582;19;20014;-73
2024/02/25 08:19:59;;;;;;;8.00;4.97;;;6.10;99.90;;;;;;7374868;19;20106;-72
2024/02/25 08:25:49;;;;;;;6.53;5.05;;;6.20;99.90;;;;;;7375072;19;20102;-70
2024/02/25 08:28:17;;;;;;;5.82;4.82;;;6.20;99.90;;;;;;7371607;19;20019;-70
2024/02/25 08:31:20;;;;;;;8.23;5.55;;;6.20;99.90;;;;;;7397327;19;20015;-71
2024/02/25 08:33:48;;;;;;;5.97;5.13;;;6.20;99.90;;;;;;7402194;19;20509;-73
2024/02/25 08:40:07;;;;;;;6.65;5.43;;;6.30;99.90;;;;;;7401087;19;20360;-70
2024/02/25 08:42:55;;;;;;;6.78;5.68;;;6.30;99.90;;;;;;7402570;19;20010;-73
2024/02/25 08:45:35;;;;;;;7.20;5.95;;;6.40;99.90;;;;;;7383187;19;20018;-72
2024/02/25 08:48:03;;;;;;;8.25;5.60;;;6.40;99.90;;;;;;7373691;19;20035;-71
2024/02/25 08:50:44;;;;;;;7.70;5.30;;;6.40;99.90;;;;;;7386398;19;20021;-72
2024/02/25 08:53:12;;;;;;;6.30;5.63;;;6.50;99.90;;;;;;7371068;19;20021;-70
2024/02/25 08:55:39;;;;;;;6.35;5.70;;;6.50;99.90;;;;;;7374068;19;20279;-71
2024/02/25 08:58:13;;;;;;;7.10;5.70;;;6.50;99.90;;;;;;7399537;19;20018;-73
2024/02/25 09:04:36;;;;;;;6.95;5.68;;;6.60;99.90;;;;;;7402822;19;20017;-73
2024/02/25 09:07:04;;;;;;;6.80;5.65;;;6.60;99.90;;;;;;7385535;19;20138;-75
2024/02/25 09:12:59;;;;;;;6.63;5.88;;;6.70;99.90;;;;;;7402965;19;20045;-73
2024/02/25 09:19:22;;;;;;;6.72;5.97;;;6.70;99.90;;;;;;7404763;19;20453;-73
2024/02/25 09:21:52;;;;;;;7.05;5.75;;;6.70;99.90;;;;;;7385922;19;20064;-72
2024/02/25 09:24:24;;;;;;;7.00;6.30;;;6.70;99.90;;;;;;7371258;19;20043;-67
2024/02/25 09:26:52;;;;;;;7.28;6.60;;;6.70;99.90;;;;;;7378658;19;20023;-72
2024/02/25 09:29:20;;;;;;;7.18;6.20;;;6.70;99.90;;;;;;7376225;19;20763;-70
2024/02/25 09:31:47;;;;;;;7.63;6.47;;;6.70;99.90;;;;;;7386777;19;20017;-72
2024/02/25 09:34:15;;;;;;;7.10;6.40;;;6.70;99.90;;;;;;7379557;19;20014;-71
2024/02/25 09:36:44;;;;;;;8.68;6.60;;;6.70;99.90;;;;;;7383211;19;20022;-72
2024/02/25 09:39:12;;;;;;;9.65;7.30;;;6.70;99.90;;;;;;7386897;19;20015;-70
2024/02/25 09:41:42;;;;;;;8.15;7.22;;;6.70;99.90;;;;;;7375256;19;20038;-72
2024/02/25 09:44:24;;;;;;;8.38;7.47;;;6.70;99.90;;;;;;7381930;19;20778;-69
2024/02/25 09:46:55;;;;;;;8.77;7.25;;;6.70;99.90;;;;;;7371024;19;20017;-69
2024/02/25 09:49:28;;;;;;;8.68;7.75;;;6.70;99.90;;;;;;7375639;19;20078;-71
2024/02/25 09:51:58;;;;;;;8.82;7.57;;;6.70;99.90;;;;;;7375309;19;20025;-67
2024/02/25 09:54:26;;;;;;;8.60;7.10;;;6.80;99.90;;;;;;7374303;19;20014;-73
2024/02/25 09:56:55;;;;;;;8.18;6.72;;;6.80;99.90;;;;;;7381063;19;20482;-71
2024/02/25 09:59:23;;;;;;;8.98;7.95;;;6.90;99.90;;;;;;7389915;19;20459;-74
2024/02/25 10:01:52;;;;;;;8.95;7.55;;;6.90;99.90;;;;;;7388498;19;20486;-74
2024/02/25 10:04:25;;;;;;;8.15;7.35;;;6.90;99.90;;;;;;7372470;19;20025;-71
2024/02/25 10:06:51;;;;;;;8.82;7.32;;;7.00;99.90;;;;;;7382988;19;20019;-71
2024/02/25 10:09:48;;;;;;;8.52;7.40;;;7.00;99.90;;;;;;7370912;19;20037;-71
2024/02/25 10:12:15;;;;;;;8.35;7.45;;;7.00;99.90;;;;;;7376818;19;20773;-75
2024/02/25 10:14:42;;;;;;;8.93;8.00;;;7.10;99.90;;;;;;7380744;19;20035;-71
2024/02/25 10:17:10;;;;;;;9.10;8.13;;;7.10;99.90;;;;;;7368243;19;20674;-72
2024/02/25 10:19:36;;;;;;;9.38;8.38;;;7.00;99.90;;;;;;7377655;19;20022;-72
2024/02/25 10:22:14;;;;;;;9.35;8.35;;;7.00;99.90;;;;;;7372285;19;20022;-72
2024/02/25 10:24:44;;;;;;;9.38;8.10;;;7.00;99.90;;;;;;7388191;19;20085;-73
2024/02/25 10:27:16;;;;;;;10.55;9.32;;;7.00;99.90;;;;;;7387831;19;20035;-71
2024/02/25 10:29:56;;;;;;;10.48;8.95;;;7.00;99.90;;;;;;7389945;19;20022;-75
2024/02/25 10:32:23;;;;;;;10.65;9.40;;;7.00;99.90;;;;;;7389348;19;20010;-71
2024/02/25 10:34:52;;;;;;;10.30;9.15;;;7.20;99.90;;;;;;7386110;19;20033;-71
2024/02/25 10:37:24;;;;;;;8.85;7.93;;;7.30;99.90;;;;;;7385474;19;20022;-71
2024/02/25 10:40:06;;;;;;;10.35;9.07;;;7.40;99.90;;;;;;7383756;19;20014;-71
2024/02/25 10:42:39;;;;;;;9.60;8.43;;;7.50;99.90;;;;;;7377671;19;20035;-71
2024/02/25 10:45:08;;;;;;;10.82;7.70;;;7.60;99.90;;;;;;7379193;19;20014;-72
2024/02/25 10:47:38;;;;;;;11.32;8.48;;;7.60;99.90;;;;;;7383598;19;20038;-72
2024/02/25 10:50:06;;;;;;;9.77;8.35;;;7.50;99.90;;;;;;7383121;19;20610;-72
2024/02/25 10:52:34;;;;;;;11.00;9.27;;;7.50;99.90;;;;;;7383636;19;20034;-71
2024/02/25 10:55:03;;;;;;;9.98;8.88;;;7.30;99.90;;;;;;7386493;19;20026;-71
2024/02/25 10:57:34;;;;;;;10.95;9.18;;;7.20;99.90;;;;;;7382613;19;20044;-71
2024/02/25 11:00:02;;;;;;;9.93;8.40;;;7.20;99.90;;;;;;7379500;19;20014;-70
2024/02/25 11:02:33;;;;;;;10.23;8.32;;;7.30;99.90;;;;;;7379109;19;20014;-75
2024/02/25 11:05:01;;;;;;;10.43;9.00;;;7.30;99.90;;;;;;7383281;19;20478;-72
2024/02/25 11:07:28;;;;;;;9.40;8.40;;;7.30;99.90;;;;;;7386257;19;20052;-72
2024/02/25 11:09:56;;;;;;;9.38;8.48;;;7.30;99.90;;;;;;7384961;19;20021;-72
2024/02/25 11:12:25;;;;;;;11.18;8.25;;;7.30;99.90;;;;;;7373639;19;20015;-74
2024/02/25 11:15:05;;;;;;;9.98;8.93;;;7.20;99.90;;;;;;7367955;19;20441;-73
2024/02/25 11:17:41;;;;;;;10.52;9.13;;;7.30;99.90;;;;;;7368850;19;20066;-74
2024/02/25 11:20:11;;;;;;;9.95;8.90;;;7.30;99.90;;;;;;7371649;19;20014;-74
2024/02/25 11:22:50;;;;;;;10.55;9.27;;;7.40;99.90;;;;;;7368659;19;20497;-74
2024/02/25 11:25:30;;;;;;;9.68;8.73;;;7.40;99.90;;;;;;7367841;19;20022;-74
2024/02/25 11:27:58;;;;;;;10.32;8.80;;;7.60;99.90;;;;;;7372297;19;20014;-74
2024/02/25 11:30:48;;;;;;;10.65;9.45;;;7.80;99.90;;;;;;7364692;19;20057;-73
2024/02/25 11:33:33;;;;;;;10.68;9.02;;;8.00;99.90;;;;;;7369244;19;20015;-73
2024/02/25 11:36:00;;;;;;;9.68;8.68;;;8.60;99.90;;;;;;7375915;19;20026;-74
2024/02/25 11:38:30;;;;;;;9.48;8.48;;;8.80;99.90;;;;;;7378837;19;20018;-73
2024/02/25 11:40:58;;;;;;;9.75;8.68;;;9.00;99.90;;;;;;7378955;19;20027;-73
2024/02/25 11:43:25;;;;;;;10.07;9.00;;;9.20;99.90;;;;;;7379458;19;20021;-72
2024/02/25 11:45:51;;;;;;;10.50;8.90;;;9.20;99.90;;;;;;7376241;19;20018;-79
2024/02/25 11:48:18;;;;;;;10.75;9.63;;;9.30;99.90;;;;;;7379707;19;20678;-73
2024/02/25 11:50:49;;;;;;;9.90;8.85;;;9.20;99.90;;;;;;7378618;19;20022;-73
2024/02/25 11:53:16;;;;;;;10.73;9.10;;;9.10;99.90;;;;;;7372683;19;20035;-71
2024/02/25 11:55:43;;;;;;;9.95;8.60;;;9.00;99.90;;;;;;7371251;19;20022;-71
2024/02/25 11:58:10;;;;;;;9.00;8.10;;;9.00;99.90;;;;;;7377434;19;20035;-68
2024/02/25 12:00:37;;;;;;;8.82;7.93;;;8.80;99.90;;;;;;7374054;19;20025;-70
2024/02/25 12:03:07;;;;;;;8.13;7.32;;;8.70;99.90;;;;;;7379449;19;20023;-72
2024/02/25 12:05:34;;;;;;;8.80;7.95;;;8.70;99.90;;;;;;7385625;19;20038;-72
2024/02/25 12:08:05;;;;;;;9.10;8.18;;;8.70;99.90;;;;;;7380234;19;20031;-69
2024/02/25 12:10:32;;;;;;;8.60;7.80;;;8.70;99.90;;;;;;7378641;19;20023;-71
2024/02/25 12:13:01;;;;;;;9.68;8.40;;;8.70;99.90;;;;;;7372886;19;20681;-69
2024/02/25 12:15:28;;;;;;;9.20;8.15;;;8.70;99.90;;;;;;7382848;19;20019;-69
2024/02/25 12:17:57;;;;;;;9.68;8.65;;;8.70;99.90;;;;;;7376801;19;20028;-69
2024/02/25 12:20:25;;;;;;;8.90;7.95;;;8.70;99.90;;;;;;7376624;19;20022;-69
2024/02/25 12:22:55;;;;;;;10.35;7.72;;;8.80;99.90;;;;;;7377866;19;20019;-67
2024/02/25 12:25:24;;;;;;;9.25;8.10;;;8.80;99.90;;;;;;7372604;19;20364;-69
2024/02/25 12:28:09;;;;;;;9.15;8.25;;;8.70;99.90;;;;;;7387304;19;20014;-68
2024/02/25 12:30:44;;;;;;;10.18;8.77;;;8.70;99.90;;;;;;7381554;19;20418;-68
2024/02/25 12:33:14;;;;;;;9.63;8.60;;;8.60;99.90;;;;;;7378837;19;20018;-68
2024/02/25 12:35:41;;;;;;;9.18;8.27;;;8.60;99.90;;;;;;7384542;19;20023;-69
2024/02/25 12:38:10;;;;;;;9.80;8.48;;;8.50;99.90;;;;;;7380506;19;20025;-69
2024/02/25 12:40:44;;;;;;;9.70;8.52;;;8.40;99.90;;;;;;7382747;19;20014;-68
2024/02/25 12:43:14;;;;;;;11.05;9.18;;;8.40;99.90;;;;;;7379300;19;20422;-69
2024/02/25 12:45:41;;;;;;;11.73;8.77;;;8.40;99.90;;;;;;7385835;19;20799;-68
2024/02/25 12:48:07;;;;;;;10.23;8.68;;;8.40;99.90;;;;;;7380361;19;20057;-68
2024/02/25 12:50:35;;;;;;;10.35;9.32;;;8.40;99.90;;;;;;7383543;19;20018;-66
2024/02/25 12:53:04;;;;;;;9.75;8.70;;;8.40;99.90;;;;;;7381498;19;20029;-72
2024/02/25 12:55:31;;;;;;;8.60;7.70;;;8.40;99.90;;;;;;7384768;19;20025;-70
2024/02/25 12:57:58;;;;;;;9.80;8.85;;;8.40;99.90;;;;;;7378479;19;20014;-67
2024/02/25 13:00:28;;;;;;;8.27;7.47;;;8.40;99.90;;;;;;7376710;19;20045;-68
2024/02/25 13:02:55;;;;;;;9.02;8.10;;;8.40;99.90;;;;;;7373374;19;20086;-68
2024/02/25 13:05:22;;;;;;;9.55;8.65;;;8.40;99.90;;;;;;7368564;19;20015;-67
2024/02/25 13:07:50;;;;;;;10.02;8.65;;;8.40;99.90;;;;;;7375600;19;20023;-68
2024/02/25 13:10:17;;;;;;;10.10;8.80;;;8.40;99.90;;;;;;7375198;19;20014;-68
2024/02/25 13:12:45;;;;;;;9.15;7.97;;;8.40;99.90;;;;;;7371249;19;20023;-68
2024/02/25 13:15:12;;;;;;;9.55;8.02;;;8.30;99.90;;;;;;7372800;19;20390;-68
2024/02/25 13:17:38;;;;;;;10.00;9.00;;;8.30;99.90;;;;;;7377442;19;20027;-69
2024/02/25 13:20:10;;;;;;;9.90;8.90;;;8.30;99.90;;;;;;7376597;19;20018;-68
2024/02/25 13:22:38;;;;;;;10.18;9.05;;;8.30;99.90;;;;;;7374696;19;20022;-66
2024/02/25 13:25:05;;;;;;;10.30;9.20;;;8.20;99.90;;;;;;7371661;19;20033;-67
2024/02/25 13:27:32;;;;;;;10.85;9.63;;;8.20;99.90;;;;;;7373205;19;20022;-65
2024/02/25 13:30:00;;;;;;;10.93;9.82;;;8.20;99.90;;;;;;7378139;19;20023;-67
2024/02/25 13:32:28;;;;;;;10.57;9.48;;;8.10;99.90;;;;;;7368570;19;20673;-68
2024/02/25 13:34:55;;;;;;;9.85;8.85;;;8.10;99.90;;;;;;7378539;19;20018;-65
2024/02/25 13:37:24;;;;;;;10.93;9.93;;;8.00;99.90;;;;;;7370482;19;20022;-66
2024/02/25 13:39:54;;;;;;;11.13;9.98;;;8.00;99.90;;;;;;7375030;19;20053;-67
2024/02/25 13:42:22;;;;;;;11.07;9.98;;;8.00;99.90;;;;;;7372203;19;20015;-69
2024/02/25 13:44:53;;;;;;;10.73;9.63;;;8.10;99.90;;;;;;7377296;19;20014;-67
2024/02/25 13:47:23;;;;;;;10.60;9.50;;;8.10;99.90;;;;;;7372186;19;20022;-68
2024/02/25 13:49:52;;;;;;;9.38;8.48;;;8.10;99.90;;;;;;7384340;19;20566;-69
2024/02/25 13:52:19;;;;;;;10.93;9.82;;;8.10;99.90;;;;;;7372832;19;20018;-68
2024/02/25 13:54:45;;;;;;;11.60;10.38;;;8.10;99.90;;;;;;7369826;19;20490;-68
2024/02/25 13:57:13;;;;;;;14.38;12.75;;;8.10;99.90;;;;;;7373906;19;20026;-68
2024/02/25 13:59:40;;;;;;;12.07;10.88;;;8.20;99.90;;;;;;7374961;19;20026;-66
2024/02/25 14:02:07;;;;;;;11.63;10.52;;;8.20;99.90;;;;;;7370256;19;20026;-67
2024/02/25 14:04:35;;;;;;;10.18;9.27;;;8.20;99.90;;;;;;7368980;19;20019;-67
2024/02/25 14:07:02;;;;;;;11.50;9.52;;;8.20;99.90;;;;;;7380694;19;20626;-70
2024/02/25 14:09:29;;;;;;;10.27;9.27;;;8.20;99.90;;;;;;7374025;19;20030;-67
2024/02/25 14:11:56;;;;;;;10.32;9.32;;;8.20;99.90;;;;;;7375560;19;20479;-66
2024/02/25 14:14:22;;;;;;;10.88;9.77;;;8.20;99.90;;;;;;7367593;19;20018;-68
2024/02/25 14:16:49;;;;;;;9.88;8.88;;;8.30;99.90;;;;;;7379898;19;20506;-68
2024/02/25 14:19:16;;;;;;;10.15;8.65;;;8.40;99.90;;;;;;7374462;19;20026;-67
2024/02/25 14:21:43;;;;;;;9.38;8.48;;;8.40;99.90;;;;;;7368116;19;20902;-68
2024/02/25 14:24:10;;;;;;;10.45;9.55;;;8.40;99.90;;;;;;7373172;19;20022;-67
2024/02/25 14:26:37;;;;;;;10.75;9.60;;;8.40;99.90;;;;;;7361690;19;20917;-67
2024/02/25 14:29:05;;;;;;;10.00;8.45;;;8.50;99.90;;;;;;7376974;19;20014;-68
2024/02/25 14:31:33;;;;;;;9.68;8.73;;;8.50;99.90;;;;;;7376277;19;20131;-68
2024/02/25 14:34:00;;;;;;;9.27;8.38;;;8.50;99.90;;;;;;7373093;19;20498;-67
2024/02/25 14:36:27;;;;;;;9.18;8.27;;;8.50;99.90;;;;;;7369278;19;20018;-67
2024/02/25 14:39:09;;;;;;;9.35;7.68;;;8.50;99.90;;;;;;7373919;19;20046;-67
2024/02/25 14:41:55;;;;;;;8.48;7.57;;;8.50;99.90;;;;;;7365545;19;20023;-67
2024/02/25 14:44:44;;;;;;;9.50;7.75;;;8.50;99.90;;;;;;7364028;19;21573;-67
2024/02/25 14:47:24;;;;;;;8.27;7.43;;;8.50;99.90;;;;;;7368834;19;20041;-67
2024/02/25 14:49:51;;;;;;;8.70;7.90;;;8.50;99.90;;;;;;7373282;19;20098;-69
2024/02/25 14:52:17;;;;;;;8.82;7.85;;;8.50;99.90;;;;;;7365252;19;20042;-70